createdAt,value
2024-02-21T00:00:20.841Z,7.80
2024-02-21T00:02:48.895Z,7.13
2024-02-21T00:05:17.029Z,7.87
2024-02-21T00:07:45.177Z,8.17
2024-02-21T00:10:13.307Z,6.57
2024-02-21T00:12:41.456Z,6.00
2024-02-21T00:15:10.298Z,6.77
2024-02-21T00:17:39.741Z,6.93
2024-02-21T00:20:09.638Z,7.37
2024-02-21T00:22:37.918Z,6.07
2024-02-21T00:25:06.510Z,7.47
2024-02-21T00:27:34.609Z,10.33
2024-02-21T00:30:02.657Z,6.80
2024-02-21T00:32:30.759Z,8.87
2024-02-21T00:35:00.283Z,7.57
2024-02-21T00:37:28.432Z,10.87
2024-02-21T00:39:56.689Z,8.03
2024-02-21T00:42:24.776Z,7.20
2024-02-21T00:44:52.841Z,7.97
2024-02-21T00:47:20.941Z,7.43
2024-02-21T00:49:49.126Z,8.97
2024-02-21T00:52:19.205Z,9.57
2024-02-21T00:54:51.031Z,8.60
2024-02-21T00:57:22.417Z,6.97
2024-02-21T00:59:50.477Z,10.33
2024-02-21T01:02:18.677Z,5.73
2024-02-21T01:04:47.057Z,10.10
2024-02-21T01:07:15.206Z,8.37
2024-02-21T01:09:44.656Z,8.83
2024-02-21T01:12:12.717Z,9.87
2024-02-21T01:14:40.863Z,9.67
2024-02-21T01:17:08.959Z,9.80
2024-02-21T01:19:37.027Z,10.27
2024-02-21T01:22:05.247Z,10.57
2024-02-21T01:24:33.310Z,10.23
2024-02-21T01:27:02.745Z,12.60
2024-02-21T01:29:30.795Z,8.63
2024-02-21T01:31:58.851Z,12.47
2024-02-21T01:34:30.426Z,10.70
2024-02-21T01:37:00.763Z,10.63
2024-02-21T01:39:28.819Z,13.77
2024-02-21T01:41:56.918Z,11.60
2024-02-21T01:44:26.390Z,16.03
2024-02-21T01:46:55.244Z,13.57
2024-02-21T01:49:24.022Z,18.30
2024-02-21T01:51:52.680Z,16.27
2024-02-21T01:54:21.731Z,16.10
2024-02-21T01:56:50.516Z,17.53
2024-02-21T01:59:20.914Z,20.97
2024-02-21T02:01:50.550Z,18.67
2024-02-21T02:04:18.753Z,18.87
2024-02-21T02:06:46.888Z,19.93
2024-02-21T02:09:14.984Z,20.17
2024-02-21T02:11:44.552Z,21.70
2024-02-21T02:14:12.633Z,22.87
2024-02-21T02:16:40.765Z,20.50
2024-02-21T02:19:13.675Z,18.37
2024-02-21T02:21:44.459Z,24.90
2024-02-21T02:24:15.663Z,21.70
2024-02-21T02:26:43.731Z,22.80
2024-02-21T02:29:12.249Z,20.87
2024-02-21T02:31:40.479Z,23.63
2024-02-21T02:34:08.785Z,23.47
2024-02-21T02:36:38.274Z,24.70
2024-02-21T02:39:07.975Z,22.60
2024-02-21T02:41:38.708Z,20.20
2024-02-21T02:44:06.828Z,25.43
2024-02-21T02:46:35.293Z,20.10
2024-02-21T02:49:03.677Z,19.83
2024-02-21T02:51:31.720Z,22.53
2024-02-21T02:53:59.774Z,18.33
2024-02-21T02:56:27.895Z,24.87
2024-02-21T02:58:57.416Z,23.87
2024-02-21T03:01:25.538Z,28.63
2024-02-21T03:03:53.750Z,25.53
2024-02-21T03:06:21.850Z,21.63
2024-02-21T03:08:49.988Z,24.23
2024-02-21T03:11:18.163Z,22.20
2024-02-21T03:13:46.315Z,30.77
2024-02-21T03:16:19.174Z,27.57
2024-02-21T03:18:47.344Z,20.87
2024-02-21T03:21:15.373Z,26.60
2024-02-21T03:23:43.451Z,22.80
2024-02-21T03:26:12.283Z,21.93
2024-02-21T03:28:40.927Z,26.77
2024-02-21T03:31:09.096Z,30.60
2024-02-21T03:33:38.525Z,19.97
2024-02-21T03:36:07.364Z,24.10
2024-02-21T03:38:35.400Z,22.13
2024-02-21T03:41:03.544Z,20.20
2024-02-21T03:43:31.721Z,27.00
2024-02-21T03:45:59.784Z,21.00
2024-02-21T03:48:27.842Z,25.23
2024-02-21T03:50:57.260Z,21.67
2024-02-21T03:53:25.320Z,22.00
2024-02-21T03:55:53.476Z,20.57
2024-02-21T03:58:21.651Z,26.63
2024-02-21T04:00:50.021Z,25.43
2024-02-21T04:03:18.330Z,20.50
2024-02-21T04:05:46.466Z,24.33
2024-02-21T04:08:16.756Z,25.97
2024-02-21T04:10:44.891Z,23.20
2024-02-21T04:13:13.055Z,23.13
2024-02-21T04:15:41.170Z,24.27
2024-02-21T04:18:09.418Z,22.10
2024-02-21T04:20:37.601Z,24.57
2024-02-21T04:23:06.036Z,23.67
2024-02-21T04:25:35.513Z,21.27
2024-02-21T04:28:03.964Z,27.23
2024-02-21T04:30:32.014Z,25.17
2024-02-21T04:33:00.193Z,25.50
2024-02-21T04:35:28.315Z,27.30
2024-02-21T04:37:57.096Z,22.63
2024-02-21T04:40:25.466Z,20.10
2024-02-21T04:42:54.910Z,20.93
2024-02-21T04:45:22.950Z,22.47
2024-02-21T04:47:51.125Z,18.37
2024-02-21T04:50:19.329Z,24.47
2024-02-21T04:52:47.545Z,18.93
2024-02-21T04:55:15.750Z,24.60
2024-02-21T04:57:43.838Z,23.70
2024-02-21T05:00:14.395Z,20.73
2024-02-21T05:02:42.490Z,21.83
2024-02-21T05:05:10.812Z,21.50
2024-02-21T05:07:39.045Z,16.57
2024-02-21T05:10:09.301Z,20.40
2024-02-21T05:12:37.621Z,18.70
2024-02-21T05:15:07.951Z,18.07
2024-02-21T05:17:37.506Z,18.30
2024-02-21T05:20:07.008Z,22.80
2024-02-21T05:22:35.192Z,18.63
2024-02-21T05:25:03.366Z,19.07
2024-02-21T05:27:31.407Z,23.17
2024-02-21T05:29:59.529Z,21.77
2024-02-21T05:32:28.228Z,23.87
2024-02-21T05:34:59.284Z,24.47
2024-02-21T05:37:27.567Z,19.40
2024-02-21T05:39:55.976Z,21.33
2024-02-21T05:42:24.044Z,17.30
2024-02-21T05:44:52.083Z,19.07
2024-02-21T05:47:21.636Z,20.73
2024-02-21T05:49:50.130Z,23.57
2024-02-21T05:52:19.605Z,20.33
2024-02-21T05:54:50.149Z,21.73
2024-02-21T05:57:19.533Z,19.47
2024-02-21T05:59:47.564Z,17.50
2024-02-21T06:02:15.771Z,23.37
2024-02-21T06:04:45.549Z,19.20
2024-02-21T06:07:13.948Z,21.70
2024-02-21T06:09:43.544Z,18.43
2024-02-21T06:12:11.699Z,21.40
2024-02-21T06:14:40.172Z,18.27
2024-02-21T06:17:08.314Z,19.90
2024-02-21T06:19:36.495Z,16.70
2024-02-21T06:22:09.116Z,18.03
2024-02-21T06:24:37.910Z,17.70
2024-02-21T06:27:11.037Z,19.30
2024-02-21T06:29:39.938Z,17.40
2024-02-21T06:32:08.273Z,17.57
2024-02-21T06:34:36.863Z,13.57
2024-02-21T06:37:05.340Z,19.13
2024-02-21T06:39:33.395Z,18.93
2024-02-21T06:42:03.904Z,18.20
2024-02-21T06:44:37.640Z,14.83
2024-02-21T06:47:06.359Z,20.43
2024-02-21T06:49:43.643Z,15.13
2024-02-21T06:52:17.626Z,19.90
2024-02-21T06:54:46.012Z,15.23
2024-02-21T06:57:14.172Z,13.17
2024-02-21T06:59:43.979Z,15.13
2024-02-21T07:02:12.075Z,12.87
2024-02-21T07:04:40.319Z,15.53
2024-02-21T07:07:08.628Z,13.20
2024-02-21T07:09:37.055Z,17.13
2024-02-21T07:12:06.120Z,17.27
2024-02-21T07:14:35.164Z,16.10
2024-02-21T07:17:04.814Z,22.40
2024-02-21T07:19:33.122Z,15.50
2024-02-21T07:22:01.243Z,15.00
2024-02-21T07:24:29.392Z,16.53
2024-02-21T07:26:58.060Z,15.33
2024-02-21T07:29:26.233Z,17.17
2024-02-21T07:31:55.036Z,14.17
2024-02-21T07:34:24.660Z,18.53
2024-02-21T07:36:52.798Z,17.17
2024-02-21T07:39:20.825Z,18.03
2024-02-21T07:41:50.329Z,15.87
2024-02-21T07:44:18.644Z,15.77
2024-02-21T07:46:46.724Z,14.73
2024-02-21T07:49:14.868Z,19.07
2024-02-21T07:51:44.385Z,14.83
2024-02-21T07:54:16.091Z,17.67
2024-02-21T07:56:45.737Z,15.70
2024-02-21T07:59:14.478Z,13.93
2024-02-21T08:01:42.816Z,19.93
2024-02-21T08:04:10.986Z,21.87
2024-02-21T08:06:39.220Z,19.20
2024-02-21T08:09:08.653Z,17.80
2024-02-21T08:11:36.782Z,16.83
2024-02-21T08:14:05.379Z,22.40
2024-02-21T08:16:33.530Z,21.67
2024-02-21T08:19:03.659Z,17.50
2024-02-21T08:21:31.817Z,20.77
2024-02-21T08:23:59.853Z,21.73
2024-02-21T08:26:31.360Z,21.03
2024-02-21T08:29:00.946Z,15.20
2024-02-21T08:31:32.418Z,18.40
2024-02-21T08:34:03.886Z,17.87
2024-02-21T08:36:32.101Z,19.97
2024-02-21T08:39:00.162Z,18.93
2024-02-21T08:41:42.469Z,18.80
2024-02-21T08:44:17.673Z,19.67
2024-02-21T08:46:45.824Z,24.63
2024-02-21T08:49:14.914Z,19.73
2024-02-21T08:51:44.319Z,21.57
2024-02-21T08:54:12.509Z,20.20
2024-02-21T08:56:41.909Z,19.93
2024-02-21T08:59:10.031Z,23.73
2024-02-21T09:01:38.555Z,20.97
2024-02-21T09:04:08.692Z,30.40
2024-02-21T09:06:40.417Z,20.43
2024-02-21T09:09:09.282Z,22.30
2024-02-21T09:11:37.517Z,23.13
2024-02-21T09:14:07.114Z,23.83
2024-02-21T09:16:35.335Z,24.30
2024-02-21T09:19:19.338Z,21.33
2024-02-21T09:21:47.555Z,27.43
2024-02-21T09:24:15.699Z,22.93
2024-02-21T09:26:43.765Z,22.03
2024-02-21T09:29:12.033Z,18.60
2024-02-21T09:31:40.719Z,19.00
2024-02-21T09:34:08.967Z,20.37
2024-02-21T09:36:39.390Z,18.30
2024-02-21T09:39:07.499Z,19.70
2024-02-21T09:41:40.785Z,17.23
2024-02-21T09:44:10.359Z,20.67
2024-02-21T09:46:47.172Z,24.27
2024-02-21T09:49:23.975Z,17.63
2024-02-21T09:51:56.045Z,18.83
2024-02-21T09:54:24.452Z,23.13
2024-02-21T09:56:53.379Z,21.20
2024-02-21T09:59:22.085Z,20.57
2024-02-21T10:01:51.505Z,18.40
2024-02-21T10:04:20.652Z,19.17
2024-02-21T10:06:48.890Z,19.30
2024-02-21T10:09:25.389Z,17.87
2024-02-21T10:11:53.648Z,21.23
2024-02-21T10:14:22.159Z,17.63
2024-02-21T10:16:51.120Z,27.83
2024-02-21T10:19:20.392Z,34.53
2024-02-21T10:22:04.700Z,26.23
2024-02-21T10:24:34.430Z,26.20
2024-02-21T10:27:05.080Z,13.90
2024-02-21T10:29:33.458Z,16.50
2024-02-21T10:32:12.086Z,20.93
2024-02-21T10:34:41.758Z,20.10
2024-02-21T10:37:11.317Z,13.23
2024-02-21T10:39:42.714Z,17.23
2024-02-21T10:42:14.223Z,17.10
2024-02-21T10:44:43.764Z,21.00
2024-02-21T10:47:14.285Z,14.97
2024-02-21T10:49:46.461Z,15.63
2024-02-21T10:52:17.605Z,16.10
2024-02-21T10:54:55.657Z,16.17
2024-02-21T10:57:24.427Z,18.20
2024-02-21T10:59:57.988Z,15.93
2024-02-21T11:02:27.051Z,16.57
2024-02-21T11:04:57.102Z,15.30
2024-02-21T11:07:26.030Z,22.40
2024-02-21T11:09:56.978Z,18.07
2024-02-21T11:12:26.770Z,15.33
2024-02-21T11:14:55.088Z,12.77
2024-02-21T11:17:27.265Z,19.10
2024-02-21T11:19:55.686Z,18.90
2024-02-21T11:22:25.979Z,17.50
2024-02-21T11:24:56.617Z,16.47
2024-02-21T11:27:26.961Z,20.33
2024-02-21T11:29:59.229Z,17.93
2024-02-21T11:32:28.810Z,18.70
2024-02-21T11:34:58.292Z,14.20
2024-02-21T11:37:29.092Z,15.40
2024-02-21T11:40:00.402Z,18.10
2024-02-21T11:42:29.740Z,17.47
2024-02-21T11:44:58.900Z,19.37
2024-02-21T11:47:27.259Z,25.50
2024-02-21T11:49:56.127Z,25.87
2024-02-21T11:52:27.231Z,18.83
2024-02-21T11:54:58.991Z,14.83
2024-02-21T11:57:28.522Z,13.97
2024-02-21T11:59:59.112Z,17.70
2024-02-21T12:02:29.740Z,15.40
2024-02-21T12:04:58.485Z,16.43
2024-02-21T12:07:27.050Z,13.20
2024-02-21T12:09:55.193Z,16.30
2024-02-21T12:12:23.291Z,15.53
2024-02-21T12:14:59.176Z,13.50
2024-02-21T12:17:27.752Z,13.00
2024-02-21T12:19:55.929Z,12.30
2024-02-21T12:22:24.196Z,9.70
2024-02-21T12:24:52.295Z,13.37
2024-02-21T12:27:20.387Z,12.70
2024-02-21T12:29:48.433Z,12.13
2024-02-21T12:32:18.176Z,14.83
2024-02-21T12:34:53.556Z,9.83
2024-02-21T12:37:26.179Z,11.27
2024-02-21T12:39:54.299Z,11.67
2024-02-21T12:42:24.734Z,12.00
2024-02-21T12:44:53.739Z,7.60
2024-02-21T12:47:24.853Z,11.70
2024-02-21T12:49:53.020Z,11.23
2024-02-21T12:52:21.678Z,10.07
2024-02-21T12:54:50.169Z,10.43
2024-02-21T12:57:18.183Z,9.23
2024-02-21T12:59:46.263Z,11.07
2024-02-21T13:02:14.418Z,14.17
2024-02-21T13:04:44.030Z,12.17
2024-02-21T13:07:12.271Z,14.13
2024-02-21T13:09:41.497Z,9.80
2024-02-21T13:12:10.234Z,12.93
2024-02-21T13:14:40.072Z,13.33
2024-02-21T13:17:07.877Z,12.03
2024-02-21T13:19:36.270Z,12.23
2024-02-21T13:22:05.861Z,11.80
2024-02-21T13:24:34.175Z,12.43
2024-02-21T13:27:02.866Z,10.07
2024-02-21T13:29:30.995Z,11.87
2024-02-21T13:31:59.396Z,11.77
2024-02-21T13:34:27.862Z,13.33
2024-02-21T13:36:56.077Z,10.43
2024-02-21T13:39:25.486Z,11.60
2024-02-21T13:41:53.705Z,9.93
2024-02-21T13:44:21.758Z,13.43
2024-02-21T13:46:49.888Z,11.63
2024-02-21T13:49:18.219Z,12.40
2024-02-21T13:51:46.873Z,11.47
2024-02-21T13:54:18.194Z,11.03
2024-02-21T13:56:47.749Z,10.83
2024-02-21T13:59:16.062Z,13.03
2024-02-21T14:01:44.438Z,18.73
2024-02-21T14:04:13.224Z,10.60
2024-02-21T14:06:44.322Z,10.70
2024-02-21T14:09:12.703Z,12.53
2024-02-21T14:11:41.165Z,12.60
2024-02-21T14:14:10.680Z,16.07
2024-02-21T14:16:38.840Z,15.07
2024-02-21T14:19:08.105Z,16.03
2024-02-21T14:21:38.192Z,16.87
2024-02-21T14:24:06.900Z,15.37
2024-02-21T14:26:36.974Z,16.50
2024-02-21T14:29:05.309Z,13.77
2024-02-21T14:31:35.258Z,15.97
2024-02-21T14:34:04.255Z,14.70
2024-02-21T14:36:34.176Z,17.73
2024-02-21T14:39:02.353Z,13.43
2024-02-21T14:41:31.053Z,12.43
2024-02-21T14:44:04.235Z,16.73
2024-02-21T14:46:34.957Z,14.60
2024-02-21T14:49:04.132Z,15.50
2024-02-21T14:51:32.723Z,13.93
2024-02-21T14:54:00.970Z,16.53
2024-02-21T14:56:28.111Z,14.67
2024-02-21T14:58:59.048Z,17.57
2024-02-21T15:01:30.875Z,13.10
2024-02-21T15:04:00.652Z,14.67
2024-02-21T15:06:29.551Z,16.37
2024-02-21T15:08:58.529Z,13.07
2024-02-21T15:11:26.665Z,15.27
2024-02-21T15:13:55.033Z,15.17
2024-02-21T15:16:23.231Z,16.43
2024-02-21T15:18:51.380Z,12.90
2024-02-21T15:21:20.855Z,14.37
2024-02-21T15:23:48.954Z,14.03
2024-02-21T15:26:18.715Z,12.40
2024-02-21T15:28:46.973Z,13.57
2024-02-21T15:31:24.155Z,13.60
2024-02-21T15:33:52.869Z,13.30
2024-02-21T15:36:22.469Z,12.00
2024-02-21T15:38:50.738Z,13.17
2024-02-21T15:41:22.524Z,11.10
2024-02-21T15:43:51.599Z,10.90
2024-02-21T15:46:19.771Z,13.37
2024-02-21T15:48:49.324Z,13.93
2024-02-21T15:51:17.428Z,10.80
2024-02-21T15:53:46.964Z,11.90
2024-02-21T15:56:15.260Z,10.30
2024-02-21T15:58:44.371Z,15.87
2024-02-21T16:01:12.957Z,12.90
2024-02-21T16:03:42.640Z,11.80
2024-02-21T16:06:11.322Z,10.97
2024-02-21T16:08:42.239Z,11.77
2024-02-21T16:11:17.297Z,13.20
2024-02-21T16:13:46.947Z,10.50
2024-02-21T16:16:15.420Z,10.73
2024-02-21T16:18:43.673Z,8.23
2024-02-21T16:21:12.016Z,9.90
2024-02-21T16:23:40.209Z,9.37
2024-02-21T16:26:08.487Z,10.60
2024-02-21T16:28:38.021Z,8.93
2024-02-21T16:31:06.285Z,11.33
2024-02-21T16:33:34.725Z,10.13
2024-02-21T16:36:03.576Z,7.97
2024-02-21T16:38:34.075Z,13.57
2024-02-21T16:41:02.156Z,10.50
2024-02-21T16:43:30.677Z,15.40
2024-02-21T16:46:00.155Z,9.93
2024-02-21T16:48:29.220Z,12.27
2024-02-21T16:51:00.888Z,11.20
2024-02-21T16:53:29.680Z,14.50
2024-02-21T16:55:57.891Z,11.03
2024-02-21T16:58:25.993Z,12.23
2024-02-21T17:00:54.272Z,8.87
2024-02-21T17:03:24.680Z,11.03
2024-02-21T17:05:55.694Z,10.00
2024-02-21T17:08:27.245Z,11.20
2024-02-21T17:10:55.771Z,10.27
2024-02-21T17:13:24.038Z,8.87
2024-02-21T17:15:53.796Z,9.63
2024-02-21T17:18:24.758Z,8.57
2024-02-21T17:20:52.910Z,10.27
2024-02-21T17:23:21.082Z,11.40
2024-02-21T17:25:49.848Z,11.93
2024-02-21T17:28:18.057Z,11.20
2024-02-21T17:30:46.279Z,10.80
2024-02-21T17:33:14.677Z,9.80
2024-02-21T17:35:48.958Z,12.80
2024-02-21T17:38:19.599Z,13.40
2024-02-21T17:40:48.734Z,10.40
2024-02-21T17:43:16.814Z,9.63
2024-02-21T17:45:44.889Z,9.17
2024-02-21T17:48:13.116Z,9.07
2024-02-21T17:50:43.983Z,12.20
2024-02-21T17:53:12.935Z,13.27
2024-02-21T17:55:41.404Z,9.77
2024-02-21T17:58:09.475Z,11.17
2024-02-21T18:00:42.572Z,9.33
2024-02-21T18:03:11.222Z,10.70
2024-02-21T18:05:39.648Z,13.33
2024-02-21T18:08:10.436Z,7.50
2024-02-21T18:10:39.118Z,7.77
2024-02-21T18:13:07.558Z,8.53
2024-02-21T18:15:36.990Z,10.10
2024-02-21T18:18:06.706Z,12.73
2024-02-21T18:20:34.897Z,9.23
2024-02-21T18:23:03.816Z,8.90
2024-02-21T18:25:34.278Z,9.83
2024-02-21T18:28:02.707Z,11.00
2024-02-21T18:30:30.739Z,11.20
2024-02-21T18:33:00.621Z,11.53
2024-02-21T18:35:28.701Z,15.97
2024-02-21T18:37:56.993Z,11.00
2024-02-21T18:40:25.478Z,15.10
2024-02-21T18:42:56.191Z,12.47
2024-02-21T18:45:24.273Z,8.03
2024-02-21T18:47:52.781Z,8.73
2024-02-21T18:50:21.087Z,11.20
2024-02-21T18:52:52.596Z,7.10
2024-02-21T18:55:20.892Z,8.97
2024-02-21T18:57:49.190Z,12.23
2024-02-21T19:00:24.125Z,9.30
2024-02-21T19:02:52.405Z,8.50
2024-02-21T19:05:22.927Z,10.30
2024-02-21T19:07:51.801Z,9.80
2024-02-21T19:10:21.818Z,7.40
2024-02-21T19:12:50.197Z,6.40
2024-02-21T19:15:19.655Z,7.73
2024-02-21T19:17:47.750Z,6.07
2024-02-21T19:20:16.267Z,7.77
2024-02-21T19:22:47.239Z,6.00
2024-02-21T19:25:18.476Z,6.50
2024-02-21T19:27:46.870Z,6.07
2024-02-21T19:30:15.515Z,7.00
2024-02-21T19:32:45.193Z,7.93
2024-02-21T19:35:13.695Z,5.93
2024-02-21T19:37:42.354Z,6.50
2024-02-21T19:40:11.585Z,7.33
2024-02-21T19:42:39.803Z,7.90
2024-02-21T19:45:09.145Z,6.00
2024-02-21T19:47:37.309Z,6.00
2024-02-21T19:50:07.999Z,6.73
2024-02-21T19:52:36.159Z,6.83
2024-02-21T19:55:05.124Z,7.10
2024-02-21T19:57:33.252Z,5.77
2024-02-21T20:00:01.393Z,7.13
2024-02-21T20:02:29.519Z,5.90
2024-02-21T20:04:57.698Z,6.43
2024-02-21T20:07:27.190Z,6.00
2024-02-21T20:09:55.313Z,6.03
2024-02-21T20:12:26.335Z,7.07
2024-02-21T20:14:55.080Z,8.30
2024-02-21T20:17:23.524Z,6.30
2024-02-21T20:19:52.594Z,6.30
2024-02-21T20:22:21.479Z,5.83
2024-02-21T20:24:51.076Z,5.90
2024-02-21T20:27:19.243Z,5.80
2024-02-21T20:29:47.681Z,4.63
2024-02-21T20:32:15.861Z,5.60
2024-02-21T20:34:44.553Z,5.37
2024-02-21T20:37:13.230Z,6.07
2024-02-21T20:39:41.251Z,6.00
2024-02-21T20:42:11.149Z,6.13
2024-02-21T20:44:39.235Z,5.50
2024-02-21T20:47:07.527Z,5.37
2024-02-21T20:49:35.852Z,5.90
2024-02-21T20:52:05.181Z,7.80
2024-02-21T20:54:34.353Z,7.63
2024-02-21T20:57:02.682Z,4.63
2024-02-21T20:59:32.206Z,5.00
2024-02-21T21:02:03.521Z,5.00
2024-02-21T21:04:32.895Z,6.60
2024-02-21T21:07:02.289Z,5.20
2024-02-21T21:09:30.462Z,4.63
2024-02-21T21:11:58.647Z,4.93
2024-02-21T21:14:28.315Z,4.67
2024-02-21T21:16:58.211Z,5.20
2024-02-21T21:19:28.603Z,5.67
2024-02-21T21:21:59.909Z,6.40
2024-02-21T21:24:28.233Z,5.03
2024-02-21T21:26:56.274Z,5.57
2024-02-21T21:29:24.345Z,5.93
2024-02-21T21:31:52.548Z,4.80
2024-02-21T21:34:22.315Z,4.70
2024-02-21T21:36:50.500Z,5.63
2024-02-21T21:39:19.308Z,6.37
2024-02-21T21:41:47.478Z,6.70
2024-02-21T21:44:16.375Z,5.50
2024-02-21T21:46:46.769Z,5.07
2024-02-21T21:49:15.644Z,5.30
2024-02-21T21:51:45.986Z,5.53
2024-02-21T21:54:14.217Z,5.07
2024-02-21T21:56:42.262Z,6.00
2024-02-21T21:59:12.560Z,7.53
2024-02-21T22:01:41.024Z,5.63
2024-02-21T22:04:09.325Z,6.50
2024-02-21T22:06:37.763Z,6.37
2024-02-21T22:09:07.345Z,6.80
2024-02-21T22:11:35.526Z,7.27
2024-02-21T22:14:03.699Z,6.67
2024-02-21T22:16:31.899Z,6.17
2024-02-21T22:18:59.987Z,7.40
2024-02-21T22:21:28.084Z,6.57
2024-02-21T22:23:56.120Z,6.43
2024-02-21T22:26:26.451Z,7.70
2024-02-21T22:28:56.598Z,6.23
2024-02-21T22:31:24.725Z,6.53
2024-02-21T22:33:54.286Z,8.40
2024-02-21T22:36:24.955Z,7.27
2024-02-21T22:38:54.512Z,6.93
2024-02-21T22:41:23.488Z,7.87
2024-02-21T22:43:54.198Z,6.03
2024-02-21T22:46:23.190Z,5.63
2024-02-21T22:48:51.282Z,5.63
2024-02-21T22:51:19.549Z,5.93
2024-02-21T22:53:47.837Z,6.53
2024-02-21T22:56:16.090Z,5.90
2024-02-21T22:58:44.264Z,6.87
2024-02-21T23:01:14.768Z,12.13
2024-02-21T23:03:43.927Z,7.73
2024-02-21T23:06:12.263Z,11.70
2024-02-21T23:08:40.323Z,8.37
2024-02-21T23:11:08.539Z,10.10
2024-02-21T23:13:37.862Z,14.17
2024-02-21T23:16:06.579Z,10.77
2024-02-21T23:18:37.152Z,16.93
2024-02-21T23:21:07.519Z,15.40
2024-02-21T23:23:35.592Z,15.30
2024-02-21T23:26:03.713Z,22.13
2024-02-21T23:28:31.877Z,16.53
2024-02-21T23:30:59.950Z,16.00
2024-02-21T23:33:34.969Z,20.27
2024-02-21T23:36:07.592Z,21.77
2024-02-21T23:38:35.714Z,25.00
2024-02-21T23:41:04.086Z,24.17
2024-02-21T23:43:34.992Z,23.10
2024-02-21T23:46:03.061Z,24.67
2024-02-21T23:48:31.160Z,25.63
2024-02-21T23:50:59.269Z,25.93
2024-02-21T23:53:28.653Z,19.43
2024-02-21T23:55:57.545Z,21.10
2024-02-21T23:58:25.097Z,28.37
